Time;durP1;ratioP1;P1;durP2;ratioP2;P2;SDS_P1;SDS_P2;PMS_P1;PMS_P2;Temp;Humidity;BMP_temperature;BMP_pressure;BME280_temperature;BME280_humidity;BME280_pressure;Samples;Min_cycle;Max_cycle;Signal;HPM_P1;HPM_P2
2022/05/09 00:01:05;;;;;;;9.10;8.30;;;15.20;99.90;;;;;;6248852;28;20485;-65
2022/05/09 00:04:09;;;;;;;8.57;7.80;;;15.20;99.90;;;;;;6252648;28;20443;-65
2022/05/09 00:07:12;;;;;;;8.33;7.73;;;15.20;99.90;;;;;;6249521;28;20489;-65
2022/05/09 00:10:17;;;;;;;11.00;8.37;;;15.10;99.90;;;;;;6250320;28;20454;-65
2022/05/09 00:13:20;;;;;;;9.73;8.77;;;15.10;99.90;;;;;;6250442;28;20430;-65
2022/05/09 00:16:27;;;;;;;8.73;8.13;;;15.10;99.90;;;;;;6249934;28;20463;-65
2022/05/09 00:19:30;;;;;;;9.30;8.33;;;15.00;99.90;;;;;;6250044;28;20533;-65
2022/05/09 00:22:43;;;;;;;8.47;7.53;;;15.00;99.90;;;;;;6254096;28;20474;-65
2022/05/09 00:25:46;;;;;;;8.77;7.83;;;15.00;99.90;;;;;;6254853;28;20490;-65
2022/05/09 00:28:49;;;;;;;10.73;8.80;;;15.00;99.90;;;;;;6254938;28;20467;-65
2022/05/09 00:31:56;;;;;;;8.47;7.77;;;15.00;99.90;;;;;;6254514;28;20475;-65
2022/05/09 00:34:59;;;;;;;8.80;8.00;;;15.00;99.90;;;;;;6255700;28;20549;-65
2022/05/09 00:38:02;;;;;;;8.50;7.80;;;15.00;99.90;;;;;;6257691;28;20478;-64
2022/05/09 00:44:27;;;;;;;9.70;8.17;;;15.00;99.90;;;;;;6254370;28;20471;-65
2022/05/09 00:47:31;;;;;;;8.40;7.70;;;14.90;99.90;;;;;;6254473;28;20585;-65
2022/05/09 00:50:37;;;;;;;8.37;7.57;;;14.90;99.90;;;;;;6254248;28;20478;-66
2022/05/09 00:53:44;;;;;;;8.27;7.57;;;14.90;99.90;;;;;;6254155;28;20821;-66
2022/05/09 00:56:50;;;;;;;9.07;8.27;;;14.90;99.90;;;;;;6254086;28;20617;-65
2022/05/09 00:59:58;;;;;;;8.73;7.93;;;14.80;99.90;;;;;;6254042;28;20488;-66
2022/05/09 01:03:10;;;;;;;8.27;7.67;;;14.80;99.90;;;;;;6253965;28;20467;-66
2022/05/09 01:06:13;;;;;;;9.50;8.27;;;14.80;99.90;;;;;;6253785;28;20479;-65
2022/05/09 01:09:16;;;;;;;7.90;7.10;;;14.80;99.90;;;;;;6249275;28;20471;-63
2022/05/09 01:12:23;;;;;;;7.20;6.70;;;14.80;99.90;;;;;;6253325;28;20479;-65
2022/05/09 01:15:26;;;;;;;8.07;7.40;;;14.80;99.90;;;;;;6253714;28;20475;-63
2022/05/09 01:18:31;;;;;;;7.47;6.87;;;14.70;99.90;;;;;;6253146;28;20475;-64
2022/05/09 01:21:37;;;;;;;8.70;8.00;;;14.70;99.90;;;;;;6253459;28;20554;-63
2022/05/09 01:24:40;;;;;;;8.50;7.80;;;14.70;99.90;;;;;;6252494;28;20479;-64
2022/05/09 01:27:46;;;;;;;8.57;7.77;;;14.70;99.90;;;;;;6253879;28;20475;-65
2022/05/09 01:30:56;;;;;;;8.53;7.73;;;14.70;99.90;;;;;;6252247;28;20475;-65
2022/05/09 01:34:02;;;;;;;9.23;8.37;;;14.70;99.90;;;;;;6252172;28;20468;-64
2022/05/09 01:37:09;;;;;;;7.93;7.30;;;14.70;99.90;;;;;;6251669;28;20963;-64
2022/05/09 01:40:12;;;;;;;8.07;7.27;;;14.70;99.90;;;;;;6252660;28;20467;-64
2022/05/09 01:43:29;;;;;;;8.30;7.67;;;14.70;99.90;;;;;;6252264;28;20448;-64
2022/05/09 01:46:33;;;;;;;8.03;7.10;;;14.70;99.90;;;;;;6251589;28;20959;-64
2022/05/09 01:49:35;;;;;;;8.00;7.30;;;14.70;99.90;;;;;;6251223;28;20950;-64
2022/05/09 01:52:40;;;;;;;7.93;7.33;;;14.70;99.90;;;;;;6251478;28;20477;-64
2022/05/09 01:55:43;;;;;;;7.07;6.47;;;14.60;99.90;;;;;;6251442;28;20482;-64
2022/05/09 01:58:46;;;;;;;9.20;8.40;;;14.60;99.90;;;;;;6251806;28;20494;-65
2022/05/09 02:01:52;;;;;;;7.33;6.73;;;14.60;99.90;;;;;;6258041;28;20486;-64
2022/05/09 02:04:55;;;;;;;8.73;8.03;;;14.60;99.90;;;;;;6259405;28;20467;-64
2022/05/09 02:08:00;;;;;;;9.13;7.93;;;14.60;99.90;;;;;;6258469;28;20486;-65
2022/05/09 02:11:03;;;;;;;8.80;8.10;;;14.60;99.90;;;;;;6251329;28;20498;-64
2022/05/09 02:14:07;;;;;;;7.83;7.13;;;14.60;99.90;;;;;;6251062;28;20468;-64
2022/05/09 02:17:11;;;;;;;8.07;7.37;;;14.60;99.90;;;;;;6252522;28;20481;-64
2022/05/09 02:20:14;;;;;;;7.83;7.13;;;14.60;99.90;;;;;;6251914;28;20963;-64
2022/05/09 02:23:19;;;;;;;7.47;6.77;;;14.60;99.90;;;;;;6252119;28;20476;-64
2022/05/09 02:26:24;;;;;;;8.60;7.80;;;14.60;99.90;;;;;;6251692;28;20482;-65
2022/05/09 02:29:27;;;;;;;8.13;7.43;;;14.50;99.90;;;;;;6252044;28;20499;-65
2022/05/09 02:32:31;;;;;;;7.93;7.13;;;14.50;99.90;;;;;;6251869;28;20478;-65
2022/05/09 02:35:35;;;;;;;9.10;7.10;;;14.50;99.90;;;;;;6251629;28;20471;-63
2022/05/09 02:38:39;;;;;;;8.23;7.53;;;14.50;99.90;;;;;;6252005;28;20490;-64
2022/05/09 02:41:43;;;;;;;7.77;7.03;;;14.50;99.90;;;;;;6251317;28;20959;-64
2022/05/09 02:44:46;;;;;;;7.63;6.93;;;14.50;99.90;;;;;;6251244;28;20475;-64
2022/05/09 02:47:50;;;;;;;7.43;6.83;;;14.40;99.90;;;;;;6251234;28;20479;-64
2022/05/09 02:50:53;;;;;;;8.87;7.90;;;14.40;99.90;;;;;;6251450;28;20486;-65
2022/05/09 02:53:57;;;;;;;8.80;7.93;;;14.40;99.90;;;;;;6251148;28;20475;-64
2022/05/09 02:57:01;;;;;;;7.57;6.80;;;14.30;99.90;;;;;;6249512;28;20482;-64
2022/05/09 03:00:06;;;;;;;8.57;7.50;;;14.40;99.90;;;;;;6249517;28;20486;-65
2022/05/09 03:06:30;;;;;;;7.70;7.10;;;14.30;99.90;;;;;;6249790;28;20475;-64
2022/05/09 03:09:34;;;;;;;8.90;7.70;;;14.30;99.90;;;;;;6249485;28;20478;-65
2022/05/09 03:12:38;;;;;;;8.27;7.47;;;14.30;99.90;;;;;;6250641;28;20824;-65
2022/05/09 03:15:43;;;;;;;8.63;7.80;;;14.30;99.90;;;;;;6250911;28;20467;-64
2022/05/09 03:18:47;;;;;;;8.77;8.07;;;14.20;99.90;;;;;;6241693;28;20820;-65
2022/05/09 03:21:50;;;;;;;7.80;7.10;;;14.20;99.90;;;;;;6249633;28;20479;-65
2022/05/09 03:24:55;;;;;;;7.83;7.23;;;14.20;99.90;;;;;;6250686;28;20486;-65
2022/05/09 03:27:59;;;;;;;8.30;7.10;;;14.20;99.90;;;;;;6250032;28;20475;-66
2022/05/09 03:31:02;;;;;;;8.07;7.33;;;14.20;99.90;;;;;;6250248;28;20480;-66
2022/05/09 03:34:06;;;;;;;7.97;7.33;;;14.10;99.90;;;;;;6250399;28;20872;-66
2022/05/09 03:37:10;;;;;;;7.97;7.17;;;14.10;99.90;;;;;;6250394;28;20454;-65
2022/05/09 03:40:17;;;;;;;7.67;7.00;;;14.10;99.90;;;;;;6250352;28;20982;-66
2022/05/09 03:43:21;;;;;;;9.37;8.47;;;14.10;99.90;;;;;;6250623;28;20455;-66
2022/05/09 03:46:25;;;;;;;8.13;7.40;;;14.10;99.90;;;;;;6251912;28;20470;-65
2022/05/09 03:49:28;;;;;;;8.30;7.50;;;14.00;99.90;;;;;;6251952;28;20467;-65
2022/05/09 03:52:31;;;;;;;8.47;7.70;;;14.00;99.90;;;;;;6250854;28;20463;-66
2022/05/09 03:55:36;;;;;;;8.63;7.70;;;14.00;99.90;;;;;;6250042;28;20521;-64
2022/05/09 03:58:40;;;;;;;8.07;7.30;;;14.00;99.90;;;;;;6250096;28;20467;-65
2022/05/09 04:01:43;;;;;;;10.13;7.40;;;14.00;99.90;;;;;;6250389;28;20978;-65
2022/05/09 04:04:46;;;;;;;11.50;8.30;;;14.00;99.90;;;;;;6250160;28;20459;-65
2022/05/09 04:07:51;;;;;;;8.10;7.27;;;14.00;99.90;;;;;;6249739;28;20489;-66
2022/05/09 04:10:56;;;;;;;8.50;7.80;;;14.00;99.90;;;;;;6250645;28;20475;-65
2022/05/09 04:13:59;;;;;;;8.50;7.30;;;14.00;99.90;;;;;;6250013;28;20475;-65
2022/05/09 04:17:01;;;;;;;8.27;7.57;;;14.00;99.90;;;;;;6249496;28;20486;-65
2022/05/09 04:20:05;;;;;;;13.30;8.33;;;14.00;99.90;;;;;;6246498;28;20513;-65
2022/05/09 04:23:09;;;;;;;8.97;7.93;;;14.10;99.90;;;;;;6250152;28;20959;-65
2022/05/09 04:26:15;;;;;;;9.67;8.87;;;14.10;99.90;;;;;;6249834;28;20475;-64
2022/05/09 04:29:18;;;;;;;7.30;6.70;;;14.10;99.90;;;;;;6250092;28;20471;-64
2022/05/09 04:32:21;;;;;;;11.67;8.60;;;14.10;99.90;;;;;;6249836;28;20471;-65
2022/05/09 04:35:25;;;;;;;7.87;7.17;;;14.20;99.90;;;;;;6249800;28;20478;-65
2022/05/09 04:38:29;;;;;;;8.63;7.90;;;14.20;99.90;;;;;;6249507;28;20490;-65
2022/05/09 04:41:33;;;;;;;8.90;8.00;;;14.20;99.90;;;;;;6249624;28;20478;-65
2022/05/09 04:44:36;;;;;;;9.23;7.87;;;14.30;99.90;;;;;;6251254;28;20471;-65
2022/05/09 04:47:40;;;;;;;10.07;7.70;;;14.40;99.90;;;;;;6249501;28;21077;-65
2022/05/09 04:50:44;;;;;;;7.93;7.23;;;14.50;99.90;;;;;;6248316;28;20486;-65
2022/05/09 04:53:49;;;;;;;8.97;8.07;;;14.50;99.90;;;;;;6247978;28;20981;-65
2022/05/09 04:56:54;;;;;;;7.80;7.10;;;14.70;99.90;;;;;;6248332;28;20486;-64
2022/05/09 04:59:57;;;;;;;8.67;7.33;;;14.70;99.90;;;;;;6247922;28;20487;-65
2022/05/09 05:03:00;;;;;;;9.30;8.50;;;14.80;99.90;;;;;;6248785;28;20570;-64
2022/05/09 05:06:04;;;;;;;8.70;7.90;;;14.80;99.90;;;;;;6248915;28;20974;-64
2022/05/09 05:09:08;;;;;;;7.93;7.13;;;14.90;99.90;;;;;;6252392;28;20481;-64
2022/05/09 05:12:12;;;;;;;8.13;7.43;;;14.90;99.90;;;;;;6253863;28;20475;-64
2022/05/09 05:15:16;;;;;;;9.57;8.57;;;14.90;99.90;;;;;;6253013;28;20471;-65
2022/05/09 05:18:20;;;;;;;8.63;7.83;;;15.00;99.90;;;;;;6253393;28;20479;-65
2022/05/09 05:21:23;;;;;;;11.00;8.90;;;15.10;99.90;;;;;;6253445;28;20526;-64
2022/05/09 05:24:27;;;;;;;9.43;8.53;;;15.10;99.90;;;;;;6262759;28;20476;-64
2022/05/09 05:27:31;;;;;;;8.57;7.77;;;15.20;99.90;;;;;;6244436;28;20489;-65
2022/05/09 05:30:35;;;;;;;7.93;7.33;;;15.20;99.90;;;;;;6266184;28;20474;-66
2022/05/09 05:33:38;;;;;;;7.93;7.23;;;15.30;99.90;;;;;;6277619;28;20466;-66
2022/05/09 05:36:41;;;;;;;9.07;8.17;;;15.40;99.90;;;;;;6275935;28;20474;-65
2022/05/09 05:39:45;;;;;;;10.07;8.77;;;15.50;99.90;;;;;;6277477;28;20489;-66
2022/05/09 05:42:50;;;;;;;7.80;7.00;;;15.50;99.90;;;;;;6278699;28;20470;-65
2022/05/09 05:45:55;;;;;;;8.60;7.33;;;15.70;99.90;;;;;;6277226;28;20478;-63
2022/05/09 05:48:59;;;;;;;8.80;7.90;;;15.90;99.90;;;;;;6277463;28;20466;-65
2022/05/09 05:52:03;;;;;;;9.40;8.50;;;16.00;99.90;;;;;;6277647;28;20462;-64
2022/05/09 05:55:08;;;;;;;8.43;7.63;;;16.10;99.90;;;;;;6277712;28;20536;-64
2022/05/09 05:58:12;;;;;;;8.83;8.13;;;16.10;99.90;;;;;;6276481;28;20459;-64
2022/05/09 06:01:15;;;;;;;10.03;8.93;;;16.30;99.90;;;;;;6272997;28;20496;-65
2022/05/09 06:04:18;;;;;;;9.20;8.20;;;16.40;99.90;;;;;;6258974;28;20475;-64
2022/05/09 06:07:23;;;;;;;9.33;7.87;;;16.50;99.90;;;;;;6265522;28;20486;-64
2022/05/09 06:10:30;;;;;;;9.10;8.30;;;16.70;99.90;;;;;;6273117;28;20899;-65
2022/05/09 06:13:34;;;;;;;9.00;8.20;;;16.80;99.90;;;;;;6276384;28;20803;-64
2022/05/09 06:16:38;;;;;;;9.00;7.73;;;16.90;99.90;;;;;;6276896;28;20466;-64
2022/05/09 06:19:41;;;;;;;9.37;7.80;;;17.10;99.90;;;;;;6275637;28;20565;-65
2022/05/09 06:22:44;;;;;;;8.73;8.03;;;17.30;99.90;;;;;;6276713;28;20798;-65
2022/05/09 06:25:48;;;;;;;9.07;8.20;;;17.50;99.90;;;;;;6276815;28;20470;-65
2022/05/09 06:28:53;;;;;;;8.20;7.40;;;17.60;99.90;;;;;;6267854;28;20473;-65
2022/05/09 06:31:57;;;;;;;9.23;7.47;;;17.80;99.90;;;;;;6276309;28;20590;-65
2022/05/09 06:35:01;;;;;;;8.20;7.43;;;18.00;99.90;;;;;;6276609;28;20962;-64
2022/05/09 06:38:06;;;;;;;8.30;7.50;;;18.20;99.90;;;;;;6276385;28;20474;-64
2022/05/09 06:41:10;;;;;;;8.90;8.00;;;18.20;99.90;;;;;;6276967;28;20938;-64
2022/05/09 06:44:14;;;;;;;8.83;8.13;;;18.40;99.90;;;;;;6276274;28;20950;-64
2022/05/09 06:47:18;;;;;;;8.63;7.37;;;18.40;99.90;;;;;;6276603;28;20239;-64
2022/05/09 06:50:23;;;;;;;8.20;7.50;;;18.40;99.90;;;;;;6276339;28;20485;-64
2022/05/09 06:53:26;;;;;;;10.10;9.10;;;18.50;99.90;;;;;;6276145;28;20962;-65
2022/05/09 06:56:34;;;;;;;9.10;8.30;;;18.60;99.80;;;;;;6277406;28;20917;-64
2022/05/09 06:59:38;;;;;;;9.50;8.50;;;18.70;99.70;;;;;;6276793;28;20997;-64
2022/05/09 07:02:41;;;;;;;9.67;8.70;;;18.80;99.70;;;;;;6276014;28;20466;-64
2022/05/09 07:05:46;;;;;;;9.30;8.40;;;19.00;99.50;;;;;;6275690;28;20462;-64
2022/05/09 07:08:49;;;;;;;8.97;8.27;;;19.10;99.20;;;;;;6275655;28;20227;-64
2022/05/09 07:11:54;;;;;;;8.83;7.93;;;19.20;99.10;;;;;;6275740;28;20223;-64
2022/05/09 07:14:59;;;;;;;8.53;7.07;;;19.40;98.30;;;;;;6275682;28;20716;-65
2022/05/09 07:18:03;;;;;;;8.10;7.33;;;19.60;98.40;;;;;;6275477;28;20228;-65
2022/05/09 07:21:07;;;;;;;8.43;7.70;;;19.60;98.00;;;;;;6275444;28;20706;-65
2022/05/09 07:24:10;;;;;;;9.03;8.23;;;19.80;97.70;;;;;;6275575;28;20240;-64
2022/05/09 07:27:14;;;;;;;9.20;8.17;;;19.90;97.00;;;;;;6275267;28;20235;-65
2022/05/09 07:30:20;;;;;;;9.00;8.20;;;20.00;96.70;;;;;;6280087;28;20234;-64
2022/05/09 07:33:24;;;;;;;9.23;8.03;;;20.10;96.80;;;;;;6257857;28;20227;-64
2022/05/09 07:36:27;;;;;;;9.13;8.33;;;20.30;96.60;;;;;;6271292;28;20659;-64
2022/05/09 07:39:31;;;;;;;9.70;8.70;;;20.50;96.00;;;;;;6259502;28;20232;-64
2022/05/09 07:42:35;;;;;;;11.40;9.20;;;20.60;95.50;;;;;;6266231;28;20231;-64
2022/05/09 07:45:40;;;;;;;8.70;7.90;;;20.90;94.90;;;;;;6258733;28;20216;-63
2022/05/09 07:48:43;;;;;;;8.70;8.00;;;21.10;94.80;;;;;;6256464;28;20580;-65
2022/05/09 07:51:46;;;;;;;9.30;8.50;;;21.40;94.80;;;;;;6275007;28;20232;-66
2022/05/09 07:54:50;;;;;;;10.50;9.50;;;21.70;94.50;;;;;;6261162;28;20228;-65
2022/05/09 07:57:53;;;;;;;8.93;8.23;;;21.90;93.40;;;;;;6250508;28;20234;-65
2022/05/09 08:01:00;;;;;;;9.80;9.00;;;22.10;92.60;;;;;;6250079;28;20243;-65
2022/05/09 08:04:04;;;;;;;9.53;8.73;;;22.30;92.20;;;;;;6250260;28;20240;-65
2022/05/09 08:07:08;;;;;;;10.70;9.60;;;22.40;91.90;;;;;;6249808;28;20236;-64
2022/05/09 08:10:13;;;;;;;10.90;9.87;;;22.50;90.90;;;;;;6249721;28;20232;-64
2022/05/09 08:13:18;;;;;;;11.37;10.30;;;22.60;90.60;;;;;;6252399;28;20207;-64
2022/05/09 08:16:25;;;;;;;11.10;10.00;;;22.60;90.20;;;;;;6251751;28;20228;-65
2022/05/09 08:19:31;;;;;;;9.90;9.00;;;22.60;90.10;;;;;;6250831;28;20185;-66
2022/05/09 08:22:34;;;;;;;10.97;9.97;;;22.60;90.10;;;;;;6249591;28;20267;-65
2022/05/09 08:25:40;;;;;;;14.00;10.13;;;22.60;90.00;;;;;;6250343;28;20231;-64
2022/05/09 08:28:44;;;;;;;13.03;9.70;;;22.60;89.80;;;;;;6250194;28;20247;-65
2022/05/09 08:31:49;;;;;;;12.00;10.80;;;22.70;90.30;;;;;;6250022;28;20228;-65
2022/05/09 08:34:53;;;;;;;13.10;11.90;;;23.20;88.80;;;;;;6251518;28;20247;-66
2022/05/09 08:37:56;;;;;;;12.97;10.63;;;23.30;87.80;;;;;;6259577;28;20235;-67
2022/05/09 08:41:09;;;;;;;13.67;10.97;;;23.30;87.20;;;;;;6257509;28;20231;-67
2022/05/09 08:44:29;;;;;;;11.30;10.20;;;23.70;87.70;;;;;;6267114;28;20307;-66
2022/05/09 08:48:03;;;;;;;11.97;10.87;;;23.70;85.20;;;;;;6263099;28;20228;-65
2022/05/09 08:51:14;;;;;;;11.00;9.60;;;23.70;85.60;;;;;;6268087;28;20686;-65
2022/05/09 08:54:22;;;;;;;10.70;9.73;;;23.90;85.00;;;;;;6278786;28;20234;-66
2022/05/09 08:57:35;;;;;;;9.87;8.90;;;24.00;85.00;;;;;;6278934;28;20243;-65
2022/05/09 09:00:39;;;;;;;10.13;9.10;;;24.30;83.80;;;;;;6278723;28;20232;-65
2022/05/09 09:03:50;;;;;;;10.40;9.40;;;24.60;81.90;;;;;;6278419;28;20235;-65
2022/05/09 09:07:13;;;;;;;9.60;8.73;;;24.70;81.80;;;;;;6278411;28;20301;-65
2022/05/09 09:10:25;;;;;;;9.13;8.43;;;24.50;80.10;;;;;;6278386;28;20223;-64
2022/05/09 09:13:45;;;;;;;10.57;9.53;;;24.90;79.50;;;;;;6260178;28;20197;-65
2022/05/09 09:17:04;;;;;;;9.63;8.73;;;24.90;79.40;;;;;;6253380;28;20677;-65
2022/05/09 09:20:18;;;;;;;9.70;8.70;;;25.20;76.50;;;;;;6253759;28;20224;-65
2022/05/09 09:23:54;;;;;;;8.47;7.77;;;25.50;75.90;;;;;;6253425;28;20369;-65
2022/05/09 09:27:05;;;;;;;8.83;8.03;;;25.70;75.60;;;;;;6218061;28;20239;-66
2022/05/09 09:30:12;;;;;;;8.53;7.70;;;26.30;73.30;;;;;;6253617;28;20232;-64
2022/05/09 09:33:19;;;;;;;9.20;7.40;;;26.40;68.90;;;;;;6274839;28;20574;-65
2022/05/09 09:36:30;;;;;;;9.27;8.33;;;26.70;68.80;;;;;;6277603;28;20691;-65
2022/05/09 09:39:34;;;;;;;8.53;7.87;;;26.80;67.20;;;;;;6255020;28;20224;-64
2022/05/09 09:42:37;;;;;;;9.43;8.53;;;27.10;64.20;;;;;;6244645;28;20555;-64
2022/05/09 09:45:44;;;;;;;7.40;6.90;;;27.00;62.80;;;;;;6253163;28;20243;-65
2022/05/09 09:49:04;;;;;;;8.77;7.97;;;27.10;60.90;;;;;;6240213;28;20581;-64
2022/05/09 09:52:30;;;;;;;11.80;8.60;;;26.60;60.90;;;;;;6228020;28;20664;-65
2022/05/09 09:55:35;;;;;;;8.90;8.20;;;27.10;60.40;;;;;;6224410;28;20224;-65
2022/05/09 09:58:40;;;;;;;10.00;9.20;;;26.90;58.30;;;;;;6228524;28;20236;-65
2022/05/09 10:01:44;;;;;;;8.30;7.70;;;26.00;60.10;;;;;;6228680;28;20335;-66
2022/05/09 10:04:48;;;;;;;9.17;8.30;;;26.30;61.40;;;;;;6228237;28;20695;-66
2022/05/09 10:07:53;;;;;;;9.60;8.73;;;26.70;61.10;;;;;;6237239;28;20233;-65
2022/05/09 10:11:02;;;;;;;9.07;8.37;;;26.80;60.30;;;;;;6239338;28;20303;-66
2022/05/09 10:14:07;;;;;;;8.93;8.17;;;26.50;59.80;;;;;;6250776;28;20223;-65
2022/05/09 10:17:28;;;;;;;9.93;8.97;;;26.80;58.30;;;;;;6230209;28;20231;-66
2022/05/09 10:20:38;;;;;;;7.87;7.27;;;26.90;58.30;;;;;;6252241;28;20255;-66
2022/05/09 10:27:27;;;;;;;9.23;8.47;;;27.50;56.60;;;;;;6252166;28;20232;-64
2022/05/09 10:30:34;;;;;;;9.73;8.93;;;26.80;58.00;;;;;;6251777;28;20655;-65
2022/05/09 10:33:44;;;;;;;8.50;7.80;;;26.80;58.70;;;;;;6252448;28;20252;-65
2022/05/09 10:36:51;;;;;;;9.80;8.90;;;26.40;58.70;;;;;;6252011;28;20243;-66
2022/05/09 10:40:02;;;;;;;9.40;8.70;;;26.20;58.70;;;;;;6248506;28;20660;-65
2022/05/09 10:43:09;;;;;;;8.80;8.10;;;25.90;59.60;;;;;;6251539;28;20236;-65
2022/05/09 10:46:13;;;;;;;8.77;8.07;;;26.00;60.80;;;;;;6236453;28;20243;-64
2022/05/09 10:49:26;;;;;;;8.53;7.87;;;26.00;60.90;;;;;;6227447;28;20300;-64
2022/05/09 10:52:41;;;;;;;9.47;8.57;;;26.00;60.90;;;;;;6226534;28;20587;-66
2022/05/09 10:55:51;;;;;;;8.60;8.00;;;26.10;59.90;;;;;;6227057;28;20681;-66
2022/05/09 10:59:00;;;;;;;9.37;7.70;;;26.10;60.20;;;;;;6226327;28;20788;-64
2022/05/09 11:02:07;;;;;;;7.93;7.33;;;26.40;59.10;;;;;;6226499;28;20692;-65
2022/05/09 11:05:11;;;;;;;9.40;8.70;;;26.60;58.30;;;;;;6226252;28;20231;-71
2022/05/09 11:08:25;;;;;;;7.80;7.10;;;26.80;57.00;;;;;;6250037;28;20234;-64
2022/05/09 11:11:39;;;;;;;8.57;7.83;;;27.00;56.30;;;;;;6250769;28;20234;-64
2022/05/09 11:14:58;;;;;;;7.97;7.27;;;26.90;55.90;;;;;;6240946;28;20310;-65
2022/05/09 11:18:18;;;;;;;7.40;6.90;;;26.90;55.50;;;;;;6243136;28;20591;-66
2022/05/09 11:21:31;;;;;;;7.97;7.37;;;26.70;55.90;;;;;;6264315;28;20223;-66
2022/05/09 11:24:46;;;;;;;7.60;7.10;;;26.60;57.00;;;;;;6264667;28;20228;-65
2022/05/09 11:28:07;;;;;;;7.93;7.23;;;26.40;58.80;;;;;;6263097;28;20702;-66
2022/05/09 11:31:21;;;;;;;9.43;7.40;;;26.30;58.80;;;;;;6251584;28;20213;-66
2022/05/09 11:34:39;;;;;;;8.20;7.50;;;26.20;59.20;;;;;;6249233;28;20297;-64
2022/05/09 11:37:56;;;;;;;7.60;6.87;;;26.00;60.20;;;;;;6249479;28;20228;-64
2022/05/09 11:41:17;;;;;;;6.37;5.80;;;25.60;59.00;;;;;;6251972;28;20230;-64
2022/05/09 11:44:30;;;;;;;5.50;4.97;;;25.10;57.90;;;;;;6274311;28;20231;-64
2022/05/09 11:47:42;;;;;;;4.97;4.57;;;24.70;56.70;;;;;;6224745;28;20406;-65
2022/05/09 11:50:56;;;;;;;5.07;4.57;;;24.30;57.40;;;;;;6238565;28;20588;-64
2022/05/09 11:54:04;;;;;;;5.20;4.70;;;24.00;56.20;;;;;;6261850;28;20231;-66
2022/05/09 11:57:11;;;;;;;5.40;4.93;;;23.70;56.00;;;;;;6261994;28;20239;-63
2022/05/09 12:00:48;;;;;;;4.47;4.07;;;23.40;56.60;;;;;;6267537;28;20228;-64
2022/05/09 12:03:54;;;;;;;4.40;4.10;;;23.20;57.20;;;;;;6249635;28;20227;-65
2022/05/09 12:06:57;;;;;;;4.50;4.10;;;23.20;57.20;;;;;;6220302;28;1106202;-64
2022/05/09 12:10:03;;;;;;;4.83;4.30;;;23.20;57.70;;;;;;6249993;28;20709;-65
2022/05/09 12:13:08;;;;;;;6.00;4.50;;;23.40;57.80;;;;;;6249989;28;20306;-64
2022/05/09 12:16:32;;;;;;;9.07;8.03;;;23.50;59.60;;;;;;6254436;28;20246;-64
2022/05/09 12:19:37;;;;;;;7.00;6.40;;;23.50;59.70;;;;;;6275425;28;20273;-63
2022/05/09 12:22:44;;;;;;;6.50;5.90;;;23.20;61.70;;;;;;6277810;28;20239;-64
2022/05/09 12:26:05;;;;;;;5.80;5.40;;;22.70;60.60;;;;;;6278366;28;20234;-64
2022/05/09 12:29:48;;;;;;;7.30;5.33;;;22.80;60.80;;;;;;6278094;28;20243;-66
2022/05/09 12:32:52;;;;;;;6.50;6.00;;;23.20;60.60;;;;;;6278443;28;20234;-64
2022/05/09 12:36:00;;;;;;;5.33;4.83;;;23.80;59.70;;;;;;6279395;28;20571;-64
2022/05/09 12:39:09;;;;;;;6.53;5.93;;;24.10;60.40;;;;;;6261799;28;20538;-63
2022/05/09 12:42:26;;;;;;;6.43;5.93;;;24.60;58.40;;;;;;6256808;28;20224;-63
2022/05/09 12:45:31;;;;;;;5.83;5.33;;;24.70;57.90;;;;;;6257649;28;20232;-63
2022/05/09 12:48:38;;;;;;;7.33;6.70;;;25.10;57.40;;;;;;6254612;28;20228;-63
2022/05/09 12:51:46;;;;;;;6.93;6.33;;;25.40;57.50;;;;;;6254596;28;20236;-62
2022/05/09 12:58:21;;;;;;;7.63;7.10;;;25.60;56.80;;;;;;6253713;28;20244;-63
2022/05/09 13:01:27;;;;;;;7.00;6.50;;;25.90;56.40;;;;;;6252579;28;20212;-63
2022/05/09 13:04:53;;;;;;;7.60;6.93;;;26.10;55.70;;;;;;6234440;28;20228;-63
2022/05/09 13:07:59;;;;;;;8.13;7.33;;;26.20;55.60;;;;;;6253507;28;20239;-64
2022/05/09 13:11:08;;;;;;;10.07;8.43;;;26.30;55.20;;;;;;6240155;28;20559;-63
2022/05/09 13:14:13;;;;;;;8.80;7.83;;;26.40;55.50;;;;;;6233022;28;20246;-63
2022/05/09 13:17:30;;;;;;;7.27;6.77;;;26.20;55.10;;;;;;6257681;28;20235;-63
2022/05/09 13:20:41;;;;;;;7.70;7.00;;;26.10;55.70;;;;;;6265684;28;20323;-67
2022/05/09 13:23:48;;;;;;;7.90;7.30;;;25.90;55.20;;;;;;6248074;28;20224;-68
2022/05/09 13:26:53;;;;;;;8.33;7.43;;;25.80;55.70;;;;;;6253281;28;20238;-67
2022/05/09 13:29:57;;;;;;;7.10;6.60;;;25.60;56.10;;;;;;6253233;28;20676;-66
2022/05/09 13:33:01;;;;;;;8.40;7.60;;;25.00;55.60;;;;;;6253618;28;20235;-66
2022/05/09 13:36:06;;;;;;;6.60;6.00;;;24.80;56.40;;;;;;6253192;28;20246;-66
2022/05/09 13:39:22;;;;;;;7.70;6.73;;;24.80;56.30;;;;;;6233311;28;20251;-66
2022/05/09 13:42:31;;;;;;;8.37;7.10;;;24.80;56.10;;;;;;6233439;28;20551;-64
2022/05/09 13:45:34;;;;;;;6.80;6.30;;;24.90;55.50;;;;;;6252291;28;20240;-65
2022/05/09 13:48:38;;;;;;;7.47;6.50;;;24.90;54.60;;;;;;6251636;28;20572;-65
2022/05/09 13:51:51;;;;;;;5.50;5.10;;;25.00;55.00;;;;;;6252297;28;20223;-66
2022/05/09 13:55:00;;;;;;;5.30;4.90;;;25.00;57.10;;;;;;6252299;28;20562;-65
2022/05/09 13:58:04;;;;;;;5.30;4.70;;;25.00;57.60;;;;;;6248000;28;20571;-66
2022/05/09 14:01:10;;;;;;;7.03;6.30;;;24.90;57.90;;;;;;6252418;28;20227;-65
2022/05/09 14:04:19;;;;;;;7.33;5.83;;;24.70;57.40;;;;;;6227985;28;20225;-65
2022/05/09 14:07:38;;;;;;;6.63;5.93;;;24.60;57.60;;;;;;6228774;28;20694;-65
2022/05/09 14:10:46;;;;;;;7.10;5.50;;;24.40;58.60;;;;;;6252030;28;20546;-65
2022/05/09 14:13:50;;;;;;;7.03;6.03;;;24.30;59.70;;;;;;6252012;28;20262;-64
2022/05/09 14:17:01;;;;;;;7.37;6.50;;;24.10;59.80;;;;;;6254393;28;20239;-64
2022/05/09 14:20:08;;;;;;;7.47;6.13;;;24.10;60.20;;;;;;6252142;28;20557;-64
2022/05/09 14:23:17;;;;;;;7.50;6.80;;;24.10;61.30;;;;;;6251824;28;20672;-65
2022/05/09 14:29:52;;;;;;;7.40;6.70;;;24.00;64.10;;;;;;6251583;28;20232;-65
2022/05/09 14:32:55;;;;;;;6.87;6.17;;;24.00;63.90;;;;;;6251238;28;20225;-66
2022/05/09 14:36:00;;;;;;;7.70;6.90;;;23.80;64.40;;;;;;6251671;28;20675;-66
2022/05/09 14:39:24;;;;;;;8.27;7.50;;;23.80;64.10;;;;;;6231644;28;20233;-67
2022/05/09 14:42:32;;;;;;;7.17;6.57;;;23.70;65.20;;;;;;6227087;28;20240;-66
2022/05/09 14:45:37;;;;;;;7.10;6.60;;;23.70;65.00;;;;;;6227712;28;20244;-65
2022/05/09 14:48:46;;;;;;;6.77;6.27;;;23.80;65.20;;;;;;6259737;28;20224;-65
2022/05/09 14:51:59;;;;;;;7.23;6.17;;;23.90;63.80;;;;;;6260216;28;20545;-65
2022/05/09 14:58:37;;;;;;;7.90;7.20;;;24.00;63.90;;;;;;6269822;28;20224;-65
2022/05/09 15:01:51;;;;;;;6.53;6.03;;;24.20;63.30;;;;;;6250249;28;20667;-64
2022/05/09 15:04:54;;;;;;;6.90;6.40;;;24.20;61.60;;;;;;6275790;28;20235;-64
2022/05/09 15:07:58;;;;;;;6.67;6.07;;;24.20;60.50;;;;;;6258789;28;20240;-63
2022/05/09 15:11:04;;;;;;;6.83;6.27;;;24.10;61.40;;;;;;6250657;28;20231;-63
2022/05/09 15:14:12;;;;;;;9.20;6.57;;;24.00;61.10;;;;;;6250641;28;20561;-64
2022/05/09 15:17:15;;;;;;;9.17;7.27;;;24.10;61.80;;;;;;6244716;28;20240;-62
2022/05/09 15:20:19;;;;;;;7.37;6.53;;;24.20;60.50;;;;;;6226113;28;20235;-62
2022/05/09 15:23:22;;;;;;;8.63;7.33;;;24.10;59.40;;;;;;6226213;28;20233;-62
2022/05/09 15:26:29;;;;;;;8.37;6.93;;;24.00;60.00;;;;;;6238921;28;20224;-62
2022/05/09 15:29:33;;;;;;;7.03;6.37;;;24.00;60.30;;;;;;6250789;28;20241;-62
2022/05/09 15:32:36;;;;;;;6.83;6.33;;;24.00;60.00;;;;;;6250139;28;20243;-64
2022/05/09 15:35:39;;;;;;;7.40;6.80;;;24.10;60.20;;;;;;6254354;28;20228;-64
2022/05/09 15:38:43;;;;;;;6.73;6.13;;;24.00;61.60;;;;;;6249624;28;20240;-64
2022/05/09 15:41:46;;;;;;;7.10;6.50;;;24.00;60.70;;;;;;6249588;28;20572;-64
2022/05/09 15:44:55;;;;;;;6.80;6.30;;;24.00;60.50;;;;;;6246412;28;20224;-65
2022/05/09 15:47:58;;;;;;;7.17;6.50;;;24.00;60.70;;;;;;6225785;28;20233;-64
2022/05/09 15:51:04;;;;;;;7.70;6.60;;;24.00;59.80;;;;;;6226035;28;20566;-64
2022/05/09 15:54:09;;;;;;;6.23;5.73;;;23.90;59.60;;;;;;6225644;28;20240;-63
2022/05/09 15:57:19;;;;;;;6.40;5.80;;;23.70;60.20;;;;;;6225175;28;20232;-63
2022/05/09 16:00:24;;;;;;;7.40;6.47;;;23.70;60.40;;;;;;6229695;28;20246;-66
2022/05/09 16:03:27;;;;;;;7.00;6.43;;;23.70;60.50;;;;;;6242671;28;20229;-64
2022/05/09 16:13:13;;;;;;;6.53;5.90;;;23.70;61.40;;;;;;6249967;28;20233;-65
2022/05/09 16:16:22;;;;;;;11.17;6.50;;;23.70;60.90;;;;;;6260530;28;20212;-65
2022/05/09 16:19:28;;;;;;;7.10;6.43;;;23.70;61.70;;;;;;6250157;28;20193;-65
2022/05/09 16:22:33;;;;;;;6.23;5.70;;;23.70;61.70;;;;;;6249670;28;20655;-65
2022/05/09 16:25:36;;;;;;;6.20;5.70;;;23.70;62.10;;;;;;6249383;28;20575;-66
2022/05/09 16:28:41;;;;;;;7.23;6.63;;;23.60;61.90;;;;;;6249548;28;20251;-63
2022/05/09 16:31:46;;;;;;;7.17;6.57;;;23.60;62.20;;;;;;6249793;28;20235;-64
2022/05/09 16:34:51;;;;;;;6.43;5.83;;;23.50;62.30;;;;;;6249566;28;20270;-66
2022/05/09 16:37:55;;;;;;;8.27;6.23;;;23.40;62.80;;;;;;6240291;28;20248;-66